sensor_id;sensor_type;location;lat;lon;timestamp;temperature;humidity
5786;DHT22;2919;48.630;9.000;2023-01-19T00:02:19;-3.20;99.90
5786;DHT22;2919;48.630;9.000;2023-01-19T00:04:45;-3.20;99.90
5786;DHT22;2919;48.630;9.000;2023-01-19T00:07:11;-3.20;99.90
5786;DHT22;2919;48.630;9.000;2023-01-19T00:09:36;-3.20;99.90
5786;DHT22;2919;48.630;9.000;2023-01-19T00:12:10;-3.20;99.90
5786;DHT22;2919;48.630;9.000;2023-01-19T00:14:36;-3.20;99.90
5786;DHT22;2919;48.630;9.000;2023-01-19T00:17:02;-3.20;99.90
5786;DHT22;2919;48.630;9.000;2023-01-19T00:19:28;-3.20;99.90
5786;DHT22;2919;48.630;9.000;2023-01-19T00:21:54;-3.30;99.90
5786;DHT22;2919;48.630;9.000;2023-01-19T00:24:20;-3.30;99.90
5786;DHT22;2919;48.630;9.000;2023-01-19T00:26:45;-3.30;99.90
5786;DHT22;2919;48.630;9.000;2023-01-19T00:29:12;-3.30;99.90
5786;DHT22;2919;48.630;9.000;2023-01-19T00:31:38;-3.30;99.90
5786;DHT22;2919;48.630;9.000;2023-01-19T00:34:05;-3.40;99.90
5786;DHT22;2919;48.630;9.000;2023-01-19T00:36:31;-3.40;99.90
5786;DHT22;2919;48.630;9.000;2023-01-19T00:38:56;-3.40;99.90
5786;DHT22;2919;48.630;9.000;2023-01-19T00:41:22;-3.50;99.90
5786;DHT22;2919;48.630;9.000;2023-01-19T00:44:09;-3.50;99.90
5786;DHT22;2919;48.630;9.000;2023-01-19T00:46:35;-3.50;99.90
5786;DHT22;2919;48.630;9.000;2023-01-19T00:49:01;-3.50;99.90
5786;DHT22;2919;48.630;9.000;2023-01-19T00:51:26;-3.50;99.90
5786;DHT22;2919;48.630;9.000;2023-01-19T00:53:52;-3.50;99.90
5786;DHT22;2919;48.630;9.000;2023-01-19T00:56:18;-3.60;99.90
5786;DHT22;2919;48.630;9.000;2023-01-19T00:58:43;-3.50;99.90
5786;DHT22;2919;48.630;9.000;2023-01-19T01:01:12;-3.50;99.90
5786;DHT22;2919;48.630;9.000;2023-01-19T01:03:38;-3.50;99.90
5786;DHT22;2919;48.630;9.000;2023-01-19T01:06:04;-3.60;99.90
5786;DHT22;2919;48.630;9.000;2023-01-19T01:08:33;-3.50;99.90
5786;DHT22;2919;48.630;9.000;2023-01-19T01:10:58;-3.50;99.90
5786;DHT22;2919;48.630;9.000;2023-01-19T01:13:24;-3.50;99.90
5786;DHT22;2919;48.630;9.000;2023-01-19T01:15:53;-3.50;99.90
5786;DHT22;2919;48.630;9.000;2023-01-19T01:18:20;-3.50;99.90
5786;DHT22;2919;48.630;9.000;2023-01-19T01:20:46;-3.50;99.90
5786;DHT22;2919;48.630;9.000;2023-01-19T01:23:12;-3.50;99.90
5786;DHT22;2919;48.630;9.000;2023-01-19T01:25:38;-3.50;99.90
5786;DHT22;2919;48.630;9.000;2023-01-19T01:28:06;-3.40;99.90
5786;DHT22;2919;48.630;9.000;2023-01-19T01:30:33;-3.40;99.90
5786;DHT22;2919;48.630;9.000;2023-01-19T01:32:59;-3.40;99.90
5786;DHT22;2919;48.630;9.000;2023-01-19T01:35:25;-3.40;99.90
5786;DHT22;2919;48.630;9.000;2023-01-19T01:37:50;-3.40;99.90
5786;DHT22;2919;48.630;9.000;2023-01-19T01:40:17;-3.40;99.90
5786;DHT22;2919;48.630;9.000;2023-01-19T01:42:43;-3.50;99.90
5786;DHT22;2919;48.630;9.000;2023-01-19T01:45:34;-3.40;99.90
5786;DHT22;2919;48.630;9.000;2023-01-19T01:48:22;-3.40;99.90
5786;DHT22;2919;48.630;9.000;2023-01-19T01:51:23;-3.40;99.90
5786;DHT22;2919;48.630;9.000;2023-01-19T01:53:57;-3.40;99.90
5786;DHT22;2919;48.630;9.000;2023-01-19T01:56:30;-3.50;99.90
5786;DHT22;2919;48.630;9.000;2023-01-19T01:58:57;-3.50;99.90
5786;DHT22;2919;48.630;9.000;2023-01-19T02:01:23;-3.40;99.90
5786;DHT22;2919;48.630;9.000;2023-01-19T02:04:07;-3.40;99.90
5786;DHT22;2919;48.630;9.000;2023-01-19T02:06:33;-3.40;99.90
5786;DHT22;2919;48.630;9.000;2023-01-19T02:09:18;-3.40;99.90
5786;DHT22;2919;48.630;9.000;2023-01-19T02:12:03;-3.40;99.90
5786;DHT22;2919;48.630;9.000;2023-01-19T02:14:47;-3.40;99.90
5786;DHT22;2919;48.630;9.000;2023-01-19T02:17:13;-3.50;99.90
5786;DHT22;2919;48.630;9.000;2023-01-19T02:19:41;-3.50;99.90
5786;DHT22;2919;48.630;9.000;2023-01-19T02:22:33;-3.50;99.90
5786;DHT22;2919;48.630;9.000;2023-01-19T02:25:03;-3.50;99.90
5786;DHT22;2919;48.630;9.000;2023-01-19T02:27:30;-3.50;99.90
5786;DHT22;2919;48.630;9.000;2023-01-19T02:29:57;-3.50;99.90
5786;DHT22;2919;48.630;9.000;2023-01-19T02:32:23;-3.50;99.90
5786;DHT22;2919;48.630;9.000;2023-01-19T02:34:48;-3.60;99.90
5786;DHT22;2919;48.630;9.000;2023-01-19T02:37:16;-3.60;99.90
5786;DHT22;2919;48.630;9.000;2023-01-19T02:39:54;-3.60;99.90
5786;DHT22;2919;48.630;9.000;2023-01-19T02:44:56;-3.60;99.90
5786;DHT22;2919;48.630;9.000;2023-01-19T02:47:22;-3.70;99.90
5786;DHT22;2919;48.630;9.000;2023-01-19T02:49:58;-3.70;99.90
5786;DHT22;2919;48.630;9.000;2023-01-19T02:52:24;-3.70;99.90
5786;DHT22;2919;48.630;9.000;2023-01-19T02:57:26;-3.80;99.90
5786;DHT22;2919;48.630;9.000;2023-01-19T03:09:10;-3.90;99.90
5786;DHT22;2919;48.630;9.000;2023-01-19T03:11:40;-3.90;99.90
5786;DHT22;2919;48.630;9.000;2023-01-19T03:14:12;-3.90;99.90
5786;DHT22;2919;48.630;9.000;2023-01-19T03:16:49;-3.90;99.90
5786;DHT22;2919;48.630;9.000;2023-01-19T03:19:23;-3.80;99.90
5786;DHT22;2919;48.630;9.000;2023-01-19T03:21:57;-3.80;99.90
5786;DHT22;2919;48.630;9.000;2023-01-19T03:24:25;-3.90;99.90
5786;DHT22;2919;48.630;9.000;2023-01-19T03:27:01;-3.90;99.90
5786;DHT22;2919;48.630;9.000;2023-01-19T03:29:31;-3.90;99.90
5786;DHT22;2919;48.630;9.000;2023-01-19T03:32:02;-3.90;99.90
5786;DHT22;2919;48.630;9.000;2023-01-19T03:34:30;-3.90;99.90
5786;DHT22;2919;48.630;9.000;2023-01-19T03:36:58;-4.00;99.90
5786;DHT22;2919;48.630;9.000;2023-01-19T03:39:26;-3.90;99.90
5786;DHT22;2919;48.630;9.000;2023-01-19T03:42:04;-3.90;99.90
5786;DHT22;2919;48.630;9.000;2023-01-19T03:44:32;-3.90;99.90
5786;DHT22;2919;48.630;9.000;2023-01-19T03:46:59;-4.00;99.90
5786;DHT22;2919;48.630;9.000;2023-01-19T03:49:25;-4.10;99.90
5786;DHT22;2919;48.630;9.000;2023-01-19T03:51:54;-4.20;99.90
5786;DHT22;2919;48.630;9.000;2023-01-19T03:54:21;-4.20;99.90
5786;DHT22;2919;48.630;9.000;2023-01-19T03:56:46;-4.20;99.90
5786;DHT22;2919;48.630;9.000;2023-01-19T03:59:12;-4.10;99.90
5786;DHT22;2919;48.630;9.000;2023-01-19T04:01:41;-4.20;99.90
5786;DHT22;2919;48.630;9.000;2023-01-19T04:04:07;-4.10;99.90
5786;DHT22;2919;48.630;9.000;2023-01-19T04:06:32;-4.10;99.90
5786;DHT22;2919;48.630;9.000;2023-01-19T04:08:58;-4.10;99.90
5786;DHT22;2919;48.630;9.000;2023-01-19T04:11:24;-4.10;99.90
5786;DHT22;2919;48.630;9.000;2023-01-19T04:13:49;-4.00;99.90
5786;DHT22;2919;48.630;9.000;2023-01-19T04:16:16;-3.90;99.90
5786;DHT22;2919;48.630;9.000;2023-01-19T04:18:44;-3.90;99.90
5786;DHT22;2919;48.630;9.000;2023-01-19T04:21:10;-3.80;99.90
5786;DHT22;2919;48.630;9.000;2023-01-19T04:23:36;-3.70;99.90
5786;DHT22;2919;48.630;9.000;2023-01-19T04:26:04;-3.70;99.90
5786;DHT22;2919;48.630;9.000;2023-01-19T04:28:31;-3.60;99.90
5786;DHT22;2919;48.630;9.000;2023-01-19T04:30:58;-3.60;99.90
5786;DHT22;2919;48.630;9.000;2023-01-19T04:33:24;-3.50;99.90
5786;DHT22;2919;48.630;9.000;2023-01-19T04:35:51;-3.50;99.90
5786;DHT22;2919;48.630;9.000;2023-01-19T04:38:17;-3.40;99.90
5786;DHT22;2919;48.630;9.000;2023-01-19T04:40:44;-3.40;99.90
5786;DHT22;2919;48.630;9.000;2023-01-19T04:43:10;-3.50;99.90
5786;DHT22;2919;48.630;9.000;2023-01-19T04:45:36;-3.50;99.90
5786;DHT22;2919;48.630;9.000;2023-01-19T04:48:02;-3.50;99.90
5786;DHT22;2919;48.630;9.000;2023-01-19T04:50:31;-3.50;99.90
5786;DHT22;2919;48.630;9.000;2023-01-19T04:52:57;-3.50;99.90
5786;DHT22;2919;48.630;9.000;2023-01-19T04:55:23;-3.50;99.90
5786;DHT22;2919;48.630;9.000;2023-01-19T04:57:48;-3.50;99.90
5786;DHT22;2919;48.630;9.000;2023-01-19T05:00:14;-3.50;99.90
5786;DHT22;2919;48.630;9.000;2023-01-19T05:02:40;-3.60;99.90
5786;DHT22;2919;48.630;9.000;2023-01-19T05:05:09;-3.70;99.90
5786;DHT22;2919;48.630;9.000;2023-01-19T05:07:36;-3.70;99.90
5786;DHT22;2919;48.630;9.000;2023-01-19T05:10:02;-3.80;99.90
5786;DHT22;2919;48.630;9.000;2023-01-19T05:12:27;-3.80;99.90
5786;DHT22;2919;48.630;9.000;2023-01-19T05:14:53;-3.80;99.90
5786;DHT22;2919;48.630;9.000;2023-01-19T05:17:18;-3.80;99.90
5786;DHT22;2919;48.630;9.000;2023-01-19T05:19:44;-3.90;99.90
5786;DHT22;2919;48.630;9.000;2023-01-19T05:22:10;-3.90;99.90
5786;DHT22;2919;48.630;9.000;2023-01-19T05:24:35;-3.90;99.90
5786;DHT22;2919;48.630;9.000;2023-01-19T05:27:01;-3.90;99.90
5786;DHT22;2919;48.630;9.000;2023-01-19T05:29:26;-4.10;99.90
5786;DHT22;2919;48.630;9.000;2023-01-19T05:31:52;-4.00;99.90
5786;DHT22;2919;48.630;9.000;2023-01-19T05:34:18;-4.10;99.90
5786;DHT22;2919;48.630;9.000;2023-01-19T05:36:43;-4.10;99.90
5786;DHT22;2919;48.630;9.000;2023-01-19T05:39:09;-4.10;99.90
5786;DHT22;2919;48.630;9.000;2023-01-19T05:41:35;-4.00;99.90
5786;DHT22;2919;48.630;9.000;2023-01-19T05:44:00;-4.00;99.90
5786;DHT22;2919;48.630;9.000;2023-01-19T05:46:26;-4.00;99.90
5786;DHT22;2919;48.630;9.000;2023-01-19T05:48:52;-4.00;99.90
5786;DHT22;2919;48.630;9.000;2023-01-19T05:51:17;-3.90;99.90
5786;DHT22;2919;48.630;9.000;2023-01-19T05:53:43;-4.00;99.90
5786;DHT22;2919;48.630;9.000;2023-01-19T05:56:09;-4.00;99.90
5786;DHT22;2919;48.630;9.000;2023-01-19T05:58:36;-4.00;99.90
5786;DHT22;2919;48.630;9.000;2023-01-19T06:01:08;-3.90;99.90
5786;DHT22;2919;48.630;9.000;2023-01-19T06:03:34;-4.00;99.90
5786;DHT22;2919;48.630;9.000;2023-01-19T06:06:01;-4.00;99.90
5786;DHT22;2919;48.630;9.000;2023-01-19T06:08:27;-4.00;99.90
5786;DHT22;2919;48.630;9.000;2023-01-19T06:10:53;-4.00;99.90
5786;DHT22;2919;48.630;9.000;2023-01-19T06:13:19;-4.10;99.90
5786;DHT22;2919;48.630;9.000;2023-01-19T06:15:45;-4.10;99.90
5786;DHT22;2919;48.630;9.000;2023-01-19T06:18:11;-4.20;99.90
5786;DHT22;2919;48.630;9.000;2023-01-19T06:20:37;-4.20;99.90
5786;DHT22;2919;48.630;9.000;2023-01-19T06:23:03;-4.20;99.90
5786;DHT22;2919;48.630;9.000;2023-01-19T06:25:28;-4.20;99.90
5786;DHT22;2919;48.630;9.000;2023-01-19T06:27:54;-4.20;99.90
5786;DHT22;2919;48.630;9.000;2023-01-19T06:30:20;-4.20;99.90
5786;DHT22;2919;48.630;9.000;2023-01-19T06:32:45;-4.20;99.90
5786;DHT22;2919;48.630;9.000;2023-01-19T06:35:12;-4.20;99.90
5786;DHT22;2919;48.630;9.000;2023-01-19T06:37:38;-4.20;99.90
5786;DHT22;2919;48.630;9.000;2023-01-19T06:40:04;-4.20;99.90
5786;DHT22;2919;48.630;9.000;2023-01-19T06:42:29;-4.10;99.90
5786;DHT22;2919;48.630;9.000;2023-01-19T06:44:55;-4.20;99.90
5786;DHT22;2919;48.630;9.000;2023-01-19T06:47:21;-4.10;99.90
5786;DHT22;2919;48.630;9.000;2023-01-19T06:49:46;-4.20;99.90
5786;DHT22;2919;48.630;9.000;2023-01-19T06:52:13;-4.20;99.90
5786;DHT22;2919;48.630;9.000;2023-01-19T06:54:41;-4.20;99.90
5786;DHT22;2919;48.630;9.000;2023-01-19T06:57:08;-4.20;99.90
5786;DHT22;2919;48.630;9.000;2023-01-19T06:59:33;-4.20;99.90
5786;DHT22;2919;48.630;9.000;2023-01-19T07:01:59;-4.20;99.90
5786;DHT22;2919;48.630;9.000;2023-01-19T07:04:24;-4.20;99.90
5786;DHT22;2919;48.630;9.000;2023-01-19T07:06:51;-4.10;99.90
5786;DHT22;2919;48.630;9.000;2023-01-19T07:09:16;-4.20;99.90
5786;DHT22;2919;48.630;9.000;2023-01-19T07:11:44;-4.20;99.90
5786;DHT22;2919;48.630;9.000;2023-01-19T07:14:10;-4.20;99.90
5786;DHT22;2919;48.630;9.000;2023-01-19T07:16:36;-4.20;99.90
5786;DHT22;2919;48.630;9.000;2023-01-19T07:19:02;-4.20;99.90
5786;DHT22;2919;48.630;9.000;2023-01-19T07:21:28;-4.30;99.90
5786;DHT22;2919;48.630;9.000;2023-01-19T07:23:53;-4.30;99.90
5786;DHT22;2919;48.630;9.000;2023-01-19T07:26:20;-4.30;99.90
5786;DHT22;2919;48.630;9.000;2023-01-19T07:28:47;-4.30;99.90
5786;DHT22;2919;48.630;9.000;2023-01-19T07:31:13;-4.30;99.90
5786;DHT22;2919;48.630;9.000;2023-01-19T07:33:39;-4.30;99.90
5786;DHT22;2919;48.630;9.000;2023-01-19T07:36:05;-4.40;99.90
5786;DHT22;2919;48.630;9.000;2023-01-19T07:38:31;-4.40;99.90
5786;DHT22;2919;48.630;9.000;2023-01-19T07:41:01;-4.30;99.90
5786;DHT22;2919;48.630;9.000;2023-01-19T07:43:26;-4.30;99.90
5786;DHT22;2919;48.630;9.000;2023-01-19T07:45:55;-4.20;99.90
5786;DHT22;2919;48.630;9.000;2023-01-19T07:48:21;-4.20;99.90
5786;DHT22;2919;48.630;9.000;2023-01-19T07:50:47;-4.20;99.90
5786;DHT22;2919;48.630;9.000;2023-01-19T07:53:12;-4.10;99.90
5786;DHT22;2919;48.630;9.000;2023-01-19T07:55:39;-4.20;99.90
5786;DHT22;2919;48.630;9.000;2023-01-19T07:58:04;-4.20;99.90
5786;DHT22;2919;48.630;9.000;2023-01-19T08:00:32;-4.10;99.90
5786;DHT22;2919;48.630;9.000;2023-01-19T08:03:00;-4.10;99.90
5786;DHT22;2919;48.630;9.000;2023-01-19T08:05:26;-4.20;99.90
5786;DHT22;2919;48.630;9.000;2023-01-19T08:07:56;-4.10;99.90
5786;DHT22;2919;48.630;9.000;2023-01-19T08:10:22;-4.00;99.90
5786;DHT22;2919;48.630;9.000;2023-01-19T08:12:54;-4.00;99.90
5786;DHT22;2919;48.630;9.000;2023-01-19T08:15:21;-3.90;99.90
5786;DHT22;2919;48.630;9.000;2023-01-19T08:17:59;-3.90;99.90
5786;DHT22;2919;48.630;9.000;2023-01-19T08:20:26;-3.80;99.90
5786;DHT22;2919;48.630;9.000;2023-01-19T08:22:52;-3.70;99.90
5786;DHT22;2919;48.630;9.000;2023-01-19T08:25:25;-3.70;99.90
5786;DHT22;2919;48.630;9.000;2023-01-19T08:27:53;-3.70;99.90
5786;DHT22;2919;48.630;9.000;2023-01-19T08:30:19;-3.60;99.90
5786;DHT22;2919;48.630;9.000;2023-01-19T08:32:44;-3.40;99.90
5786;DHT22;2919;48.630;9.000;2023-01-19T08:35:10;-3.20;99.90
5786;DHT22;2919;48.630;9.000;2023-01-19T08:37:35;-3.00;99.90
5786;DHT22;2919;48.630;9.000;2023-01-19T08:40:01;-2.80;99.90
5786;DHT22;2919;48.630;9.000;2023-01-19T08:42:27;-2.60;99.90
5786;DHT22;2919;48.630;9.000;2023-01-19T08:44:53;-2.60;99.90
5786;DHT22;2919;48.630;9.000;2023-01-19T08:47:18;-2.50;99.90
5786;DHT22;2919;48.630;9.000;2023-01-19T08:49:44;-2.50;99.90
5786;DHT22;2919;48.630;9.000;2023-01-19T08:52:09;-2.50;99.90
5786;DHT22;2919;48.630;9.000;2023-01-19T08:54:35;-2.60;99.90
5786;DHT22;2919;48.630;9.000;2023-01-19T08:57:01;-2.60;99.90
5786;DHT22;2919;48.630;9.000;2023-01-19T08:59:27;-2.50;99.90
5786;DHT22;2919;48.630;9.000;2023-01-19T09:01:52;-2.30;99.90
5786;DHT22;2919;48.630;9.000;2023-01-19T09:04:18;-2.10;99.90
5786;DHT22;2919;48.630;9.000;2023-01-19T09:06:43;-2.00;99.90
5786;DHT22;2919;48.630;9.000;2023-01-19T09:09:09;-1.80;99.90
5786;DHT22;2919;48.630;9.000;2023-01-19T09:11:34;-1.70;99.90
5786;DHT22;2919;48.630;9.000;2023-01-19T09:14:00;-1.50;99.90
5786;DHT22;2919;48.630;9.000;2023-01-19T09:16:26;-1.30;99.90
5786;DHT22;2919;48.630;9.000;2023-01-19T09:18:53;-1.30;99.90
5786;DHT22;2919;48.630;9.000;2023-01-19T09:21:18;-1.40;99.90
5786;DHT22;2919;48.630;9.000;2023-01-19T09:23:44;-1.30;99.90
5786;DHT22;2919;48.630;9.000;2023-01-19T09:26:10;-1.40;99.90
5786;DHT22;2919;48.630;9.000;2023-01-19T09:28:36;-1.40;99.90
5786;DHT22;2919;48.630;9.000;2023-01-19T09:31:06;-1.40;99.90
5786;DHT22;2919;48.630;9.000;2023-01-19T09:33:32;-1.40;99.90
5786;DHT22;2919;48.630;9.000;2023-01-19T09:35:58;-1.50;99.90
5786;DHT22;2919;48.630;9.000;2023-01-19T09:38:24;-1.60;99.90
5786;DHT22;2919;48.630;9.000;2023-01-19T09:40:53;-1.40;99.90
5786;DHT22;2919;48.630;9.000;2023-01-19T09:45:49;-1.10;99.90
5786;DHT22;2919;48.630;9.000;2023-01-19T09:48:44;-1.00;99.90
5786;DHT22;2919;48.630;9.000;2023-01-19T09:51:18;-1.00;99.90
5786;DHT22;2919;48.630;9.000;2023-01-19T09:56:29;-0.80;99.90
5786;DHT22;2919;48.630;9.000;2023-01-19T09:58:57;-0.90;99.90
5786;DHT22;2919;48.630;9.000;2023-01-19T10:04:25;-0.70;99.90
5786;DHT22;2919;48.630;9.000;2023-01-19T10:06:58;-0.70;99.90
5786;DHT22;2919;48.630;9.000;2023-01-19T10:09:34;-0.80;99.90
5786;DHT22;2919;48.630;9.000;2023-01-19T10:12:10;-0.90;99.90
5786;DHT22;2919;48.630;9.000;2023-01-19T10:14:59;-1.10;99.90
5786;DHT22;2919;48.630;9.000;2023-01-19T10:20:36;-1.30;99.90
5786;DHT22;2919;48.630;9.000;2023-01-19T10:23:36;-1.40;99.90
5786;DHT22;2919;48.630;9.000;2023-01-19T10:26:04;-1.40;99.90
5786;DHT22;2919;48.630;9.000;2023-01-19T10:28:32;-1.40;99.90
5786;DHT22;2919;48.630;9.000;2023-01-19T10:30:58;-1.40;99.90
5786;DHT22;2919;48.630;9.000;2023-01-19T10:33:24;-1.40;99.90
5786;DHT22;2919;48.630;9.000;2023-01-19T10:35:50;-1.30;99.90
5786;DHT22;2919;48.630;9.000;2023-01-19T10:38:16;-1.20;99.90
5786;DHT22;2919;48.630;9.000;2023-01-19T10:41:06;-1.20;99.90
5786;DHT22;2919;48.630;9.000;2023-01-19T10:43:39;-1.10;99.90
5786;DHT22;2919;48.630;9.000;2023-01-19T10:46:14;-1.10;99.90
5786;DHT22;2919;48.630;9.000;2023-01-19T10:48:41;-1.10;99.90
5786;DHT22;2919;48.630;9.000;2023-01-19T10:51:09;-1.00;99.90
5786;DHT22;2919;48.630;9.000;2023-01-19T10:53:35;-0.90;99.90
5786;DHT22;2919;48.630;9.000;2023-01-19T10:58:35;-0.80;99.90
5786;DHT22;2919;48.630;9.000;2023-01-19T11:01:25;-0.80;99.90
5786;DHT22;2919;48.630;9.000;2023-01-19T11:03:52;-0.80;99.90
5786;DHT22;2919;48.630;9.000;2023-01-19T11:08:47;-0.60;99.90
5786;DHT22;2919;48.630;9.000;2023-01-19T11:11:16;-0.50;99.90
5786;DHT22;2919;48.630;9.000;2023-01-19T11:13:42;-0.40;99.90
5786;DHT22;2919;48.630;9.000;2023-01-19T11:16:29;-0.20;99.90
5786;DHT22;2919;48.630;9.000;2023-01-19T11:18:56;0.30;99.90
5786;DHT22;2919;48.630;9.000;2023-01-19T11:21:24;0.60;99.90
5786;DHT22;2919;48.630;9.000;2023-01-19T11:24:01;0.90;99.90
5786;DHT22;2919;48.630;9.000;2023-01-19T11:26:54;0.80;99.90
5786;DHT22;2919;48.630;9.000;2023-01-19T11:29:24;0.80;99.90
5786;DHT22;2919;48.630;9.000;2023-01-19T11:31:51;0.80;99.90
5786;DHT22;2919;48.630;9.000;2023-01-19T11:34:33;0.80;99.90
5786;DHT22;2919;48.630;9.000;2023-01-19T11:39:31;0.50;99.90
5786;DHT22;2919;48.630;9.000;2023-01-19T11:42:11;0.60;99.90
5786;DHT22;2919;48.630;9.000;2023-01-19T11:44:52;0.70;99.90
5786;DHT22;2919;48.630;9.000;2023-01-19T11:47:40;0.90;99.90
5786;DHT22;2919;48.630;9.000;2023-01-19T11:55:42;0.70;99.90
5786;DHT22;2919;48.630;9.000;2023-01-19T11:58:16;0.60;99.90
5786;DHT22;2919;48.630;9.000;2023-01-19T12:05:47;0.70;99.90
5786;DHT22;2919;48.630;9.000;2023-01-19T12:08:30;0.60;99.90
5786;DHT22;2919;48.630;9.000;2023-01-19T12:10:58;0.70;99.90
5786;DHT22;2919;48.630;9.000;2023-01-19T12:13:26;0.80;99.90
5786;DHT22;2919;48.630;9.000;2023-01-19T12:16:05;0.80;99.90
5786;DHT22;2919;48.630;9.000;2023-01-19T12:18:36;0.80;99.90
5786;DHT22;2919;48.630;9.000;2023-01-19T12:21:02;0.90;99.90
5786;DHT22;2919;48.630;9.000;2023-01-19T12:26:35;0.80;99.90
5786;DHT22;2919;48.630;9.000;2023-01-19T12:29:16;0.80;99.90
5786;DHT22;2919;48.630;9.000;2023-01-19T12:31:42;0.90;99.90
5786;DHT22;2919;48.630;9.000;2023-01-19T12:34:28;0.90;99.90
5786;DHT22;2919;48.630;9.000;2023-01-19T12:37:01;0.80;99.90
5786;DHT22;2919;48.630;9.000;2023-01-19T12:39:28;0.80;99.90
5786;DHT22;2919;48.630;9.000;2023-01-19T12:42:13;0.80;99.90
5786;DHT22;2919;48.630;9.000;2023-01-19T12:44:39;0.70;99.90
5786;DHT22;2919;48.630;9.000;2023-01-19T12:52:36;0.60;99.90
5786;DHT22;2919;48.630;9.000;2023-01-19T12:58:05;0.60;99.90
5786;DHT22;2919;48.630;9.000;2023-01-19T13:00:41;0.60;99.90
5786;DHT22;2919;48.630;9.000;2023-01-19T13:13:23;0.50;99.90
5786;DHT22;2919;48.630;9.000;2023-01-19T13:15:50;0.50;99.90
5786;DHT22;2919;48.630;9.000;2023-01-19T13:18:19;0.40;99.90
5786;DHT22;2919;48.630;9.000;2023-01-19T13:21:05;0.40;99.90
5786;DHT22;2919;48.630;9.000;2023-01-19T13:26:16;0.40;99.90
5786;DHT22;2919;48.630;9.000;2023-01-19T13:28:44;0.40;99.90
5786;DHT22;2919;48.630;9.000;2023-01-19T13:31:11;0.40;99.90
5786;DHT22;2919;48.630;9.000;2023-01-19T13:33:43;0.50;99.90
5786;DHT22;2919;48.630;9.000;2023-01-19T13:36:27;0.50;99.90
5786;DHT22;2919;48.630;9.000;2023-01-19T13:38:55;0.50;99.90
5786;DHT22;2919;48.630;9.000;2023-01-19T13:41:28;0.50;99.90
5786;DHT22;2919;48.630;9.000;2023-01-19T13:44:02;0.40;99.90
5786;DHT22;2919;48.630;9.000;2023-01-19T13:46:30;0.40;99.90
5786;DHT22;2919;48.630;9.000;2023-01-19T13:49:09;0.40;99.90
5786;DHT22;2919;48.630;9.000;2023-01-19T13:51:37;0.30;99.90
5786;DHT22;2919;48.630;9.000;2023-01-19T13:54:02;0.30;99.90
5786;DHT22;2919;48.630;9.000;2023-01-19T13:56:29;0.20;99.90
5786;DHT22;2919;48.630;9.000;2023-01-19T13:59:06;0.30;99.90
5786;DHT22;2919;48.630;9.000;2023-01-19T14:01:41;0.30;99.90
5786;DHT22;2919;48.630;9.000;2023-01-19T14:04:36;0.30;99.90
5786;DHT22;2919;48.630;9.000;2023-01-19T14:07:12;0.30;99.90
5786;DHT22;2919;48.630;9.000;2023-01-19T14:10:06;0.30;99.90
5786;DHT22;2919;48.630;9.000;2023-01-19T14:12:33;0.20;99.90
5786;DHT22;2919;48.630;9.000;2023-01-19T14:14:59;0.20;99.90
5786;DHT22;2919;48.630;9.000;2023-01-19T14:17:29;0.20;99.90
5786;DHT22;2919;48.630;9.000;2023-01-19T14:19:56;0.10;99.90
5786;DHT22;2919;48.630;9.000;2023-01-19T14:22:40;0.20;99.90
5786;DHT22;2919;48.630;9.000;2023-01-19T14:28:27;0.20;99.90
5786;DHT22;2919;48.630;9.000;2023-01-19T14:30:57;0.10;99.90
5786;DHT22;2919;48.630;9.000;2023-01-19T14:33:40;0.20;99.90
5786;DHT22;2919;48.630;9.000;2023-01-19T14:38:48;0.10;99.90
5786;DHT22;2919;48.630;9.000;2023-01-19T14:41:24;0.10;99.90
5786;DHT22;2919;48.630;9.000;2023-01-19T14:43:50;0.10;99.90
5786;DHT22;2919;48.630;9.000;2023-01-19T14:46:17;0.20;99.90
5786;DHT22;2919;48.630;9.000;2023-01-19T14:48:51;0.10;99.90
5786;DHT22;2919;48.630;9.000;2023-01-19T14:51:21;0.10;99.90
5786;DHT22;2919;48.630;9.000;2023-01-19T14:53:54;0.00;99.90
5786;DHT22;2919;48.630;9.000;2023-01-19T14:56:29;0.00;99.90
5786;DHT22;2919;48.630;9.000;2023-01-19T14:59:00;0.00;99.90
5786;DHT22;2919;48.630;9.000;2023-01-19T15:01:26;0.00;99.90
5786;DHT22;2919;48.630;9.000;2023-01-19T15:03:56;0.00;99.90
5786;DHT22;2919;48.630;9.000;2023-01-19T15:06:23;0.00;99.90
5786;DHT22;2919;48.630;9.000;2023-01-19T15:08:49;-0.10;99.90
5786;DHT22;2919;48.630;9.000;2023-01-19T15:11:30;-0.10;99.90
5786;DHT22;2919;48.630;9.000;2023-01-19T15:13:57;-0.10;99.90
5786;DHT22;2919;48.630;9.000;2023-01-19T15:16:24;0.00;99.90
5786;DHT22;2919;48.630;9.000;2023-01-19T15:18:50;0.00;99.90
5786;DHT22;2919;48.630;9.000;2023-01-19T15:21:17;-0.10;99.90
5786;DHT22;2919;48.630;9.000;2023-01-19T15:23:51;-0.10;99.90
5786;DHT22;2919;48.630;9.000;2023-01-19T15:26:20;-0.10;99.90
5786;DHT22;2919;48.630;9.000;2023-01-19T15:28:46;-0.10;99.90
5786;DHT22;2919;48.630;9.000;2023-01-19T15:31:17;0.00;99.90
5786;DHT22;2919;48.630;9.000;2023-01-19T15:33:43;-0.10;99.90
5786;DHT22;2919;48.630;9.000;2023-01-19T15:36:14;-0.10;99.90
5786;DHT22;2919;48.630;9.000;2023-01-19T15:39:03;-0.10;99.90
5786;DHT22;2919;48.630;9.000;2023-01-19T15:41:29;-0.10;99.90
5786;DHT22;2919;48.630;9.000;2023-01-19T15:43:55;0.00;99.90
5786;DHT22;2919;48.630;9.000;2023-01-19T15:46:22;-0.20;99.90
5786;DHT22;2919;48.630;9.000;2023-01-19T15:48:48;-0.20;99.90
5786;DHT22;2919;48.630;9.000;2023-01-19T15:51:25;-0.20;99.90
5786;DHT22;2919;48.630;9.000;2023-01-19T15:53:52;-0.20;99.90
5786;DHT22;2919;48.630;9.000;2023-01-19T15:56:24;-0.30;99.90
5786;DHT22;2919;48.630;9.000;2023-01-19T15:58:51;-0.30;99.90
5786;DHT22;2919;48.630;9.000;2023-01-19T16:01:18;-0.30;99.90
5786;DHT22;2919;48.630;9.000;2023-01-19T16:03:44;-0.30;99.90
5786;DHT22;2919;48.630;9.000;2023-01-19T16:06:10;-0.30;99.90
5786;DHT22;2919;48.630;9.000;2023-01-19T16:08:37;-0.30;99.90
5786;DHT22;2919;48.630;9.000;2023-01-19T16:11:08;-0.20;99.90
5786;DHT22;2919;48.630;9.000;2023-01-19T16:13:33;-0.20;99.90
5786;DHT22;2919;48.630;9.000;2023-01-19T16:16:08;-0.20;99.90
5786;DHT22;2919;48.630;9.000;2023-01-19T16:18:36;-0.20;99.90
5786;DHT22;2919;48.630;9.000;2023-01-19T16:21:02;-0.20;99.90
5786;DHT22;2919;48.630;9.000;2023-01-19T16:23:28;-0.10;99.90
5786;DHT22;2919;48.630;9.000;2023-01-19T16:25:58;-0.20;99.90
5786;DHT22;2919;48.630;9.000;2023-01-19T16:28:25;-0.20;99.90
5786;DHT22;2919;48.630;9.000;2023-01-19T16:30:51;-0.30;99.90
5786;DHT22;2919;48.630;9.000;2023-01-19T16:33:17;-0.30;99.90
5786;DHT22;2919;48.630;9.000;2023-01-19T16:35:43;-0.30;99.90
5786;DHT22;2919;48.630;9.000;2023-01-19T16:38:09;-0.30;99.90
5786;DHT22;2919;48.630;9.000;2023-01-19T16:40:34;-0.30;99.90
5786;DHT22;2919;48.630;9.000;2023-01-19T16:43:00;-0.30;99.90
5786;DHT22;2919;48.630;9.000;2023-01-19T16:45:26;-0.30;99.90
5786;DHT22;2919;48.630;9.000;2023-01-19T16:47:51;-0.30;99.90
5786;DHT22;2919;48.630;9.000;2023-01-19T16:50:18;-0.30;99.90
5786;DHT22;2919;48.630;9.000;2023-01-19T16:52:44;-0.30;99.90
5786;DHT22;2919;48.630;9.000;2023-01-19T16:55:09;-0.40;99.90
5786;DHT22;2919;48.630;9.000;2023-01-19T16:57:36;-0.30;99.90
5786;DHT22;2919;48.630;9.000;2023-01-19T17:00:06;-0.40;99.90
5786;DHT22;2919;48.630;9.000;2023-01-19T17:02:33;-0.40;99.90
5786;DHT22;2919;48.630;9.000;2023-01-19T17:04:58;-0.40;99.90
5786;DHT22;2919;48.630;9.000;2023-01-19T17:07:25;-0.30;99.90
5786;DHT22;2919;48.630;9.000;2023-01-19T17:09:51;-0.30;99.90
5786;DHT22;2919;48.630;9.000;2023-01-19T17:12:16;-0.30;99.90
5786;DHT22;2919;48.630;9.000;2023-01-19T17:14:42;-0.40;99.90
5786;DHT22;2919;48.630;9.000;2023-01-19T17:17:08;-0.40;99.90
5786;DHT22;2919;48.630;9.000;2023-01-19T17:19:34;-0.40;99.90
5786;DHT22;2919;48.630;9.000;2023-01-19T17:21:59;-0.40;99.90
5786;DHT22;2919;48.630;9.000;2023-01-19T17:24:25;-0.40;99.90
5786;DHT22;2919;48.630;9.000;2023-01-19T17:26:50;-0.40;99.90
5786;DHT22;2919;48.630;9.000;2023-01-19T17:29:16;-0.50;99.90
5786;DHT22;2919;48.630;9.000;2023-01-19T17:31:42;-0.50;99.90